Terminal Aerodrome Forecast
Issued by NWS Twin Cities, MN

Home | Current Version | Previous Version | Graphics & Text | Print | Product List | Glossary On
Versions: 1 2 3 4 5 6 7 8 9 10 11 12 13 14 15 16
453
FTUS43 KMPX 181732
TAFEAU
TAF
KEAU 181732Z 1818/1918 33012G18KT P6SM BKN016
     FM182000 31013G22KT P6SM SCT025
     FM182300 31012KT P6SM BKN035
     FM190500 28007KT P6SM SCT250=

USA.gov is the U.S. government's official web portal to all federal, state and local government web resources and services.